sensor_id;sensor_type;location;lat;lon;timestamp;P1;durP1;ratioP1;P2;durP2;ratioP2
21862;SDS011;11096;51.338;12.524;2024-02-26T00:00:27;21.40;;;11.93;;
21862;SDS011;11096;51.338;12.524;2024-02-26T00:02:54;19.25;;;11.27;;
21862;SDS011;11096;51.338;12.524;2024-02-26T00:05:19;20.80;;;10.73;;
21862;SDS011;11096;51.338;12.524;2024-02-26T00:07:44;20.42;;;11.95;;
21862;SDS011;11096;51.338;12.524;2024-02-26T00:10:10;21.98;;;11.77;;
21862;SDS011;11096;51.338;12.524;2024-02-26T00:12:35;27.88;;;15.18;;
21862;SDS011;11096;51.338;12.524;2024-02-26T00:15:00;25.23;;;14.95;;
21862;SDS011;11096;51.338;12.524;2024-02-26T00:17:25;26.02;;;14.20;;
21862;SDS011;11096;51.338;12.524;2024-02-26T00:19:51;28.77;;;14.23;;
21862;SDS011;11096;51.338;12.524;2024-02-26T00:22:16;24.60;;;14.57;;
21862;SDS011;11096;51.338;12.524;2024-02-26T00:24:41;27.27;;;13.57;;
21862;SDS011;11096;51.338;12.524;2024-02-26T00:27:06;24.60;;;13.55;;
21862;SDS011;11096;51.338;12.524;2024-02-26T00:29:32;28.55;;;15.45;;
21862;SDS011;11096;51.338;12.524;2024-02-26T00:31:57;28.50;;;14.80;;
21862;SDS011;11096;51.338;12.524;2024-02-26T00:34:22;24.77;;;14.57;;
21862;SDS011;11096;51.338;12.524;2024-02-26T00:36:48;35.05;;;17.02;;
21862;SDS011;11096;51.338;12.524;2024-02-26T00:39:13;30.42;;;16.10;;
21862;SDS011;11096;51.338;12.524;2024-02-26T00:41:39;29.58;;;16.90;;
21862;SDS011;11096;51.338;12.524;2024-02-26T00:44:05;28.00;;;15.57;;
21862;SDS011;11096;51.338;12.524;2024-02-26T00:46:30;29.90;;;16.17;;
21862;SDS011;11096;51.338;12.524;2024-02-26T00:48:55;27.10;;;15.98;;
21862;SDS011;11096;51.338;12.524;2024-02-26T00:51:20;29.10;;;16.63;;
21862;SDS011;11096;51.338;12.524;2024-02-26T00:53:46;30.92;;;16.38;;
21862;SDS011;11096;51.338;12.524;2024-02-26T00:56:11;29.25;;;15.75;;
21862;SDS011;11096;51.338;12.524;2024-02-26T00:58:36;31.15;;;16.23;;
21862;SDS011;11096;51.338;12.524;2024-02-26T01:01:01;27.67;;;15.68;;
21862;SDS011;11096;51.338;12.524;2024-02-26T01:03:28;32.58;;;15.82;;
21862;SDS011;11096;51.338;12.524;2024-02-26T01:05:53;23.88;;;14.90;;
21862;SDS011;11096;51.338;12.524;2024-02-26T01:08:18;24.95;;;14.65;;
21862;SDS011;11096;51.338;12.524;2024-02-26T01:10:43;26.98;;;15.63;;
21862;SDS011;11096;51.338;12.524;2024-02-26T01:13:09;27.67;;;14.60;;
21862;SDS011;11096;51.338;12.524;2024-02-26T01:15:34;25.42;;;14.63;;
21862;SDS011;11096;51.338;12.524;2024-02-26T01:17:59;24.10;;;13.30;;
21862;SDS011;11096;51.338;12.524;2024-02-26T01:20:24;23.15;;;13.45;;
21862;SDS011;11096;51.338;12.524;2024-02-26T01:22:50;26.65;;;14.20;;
21862;SDS011;11096;51.338;12.524;2024-02-26T01:25:15;24.38;;;13.77;;
21862;SDS011;11096;51.338;12.524;2024-02-26T01:27:41;23.40;;;13.50;;
21862;SDS011;11096;51.338;12.524;2024-02-26T01:30:07;22.13;;;13.43;;
21862;SDS011;11096;51.338;12.524;2024-02-26T01:32:33;24.85;;;14.10;;
21862;SDS011;11096;51.338;12.524;2024-02-26T01:34:58;26.23;;;14.32;;
21862;SDS011;11096;51.338;12.524;2024-02-26T01:37:23;25.27;;;13.70;;
21862;SDS011;11096;51.338;12.524;2024-02-26T01:39:49;21.95;;;13.73;;
21862;SDS011;11096;51.338;12.524;2024-02-26T01:42:14;23.30;;;14.07;;
21862;SDS011;11096;51.338;12.524;2024-02-26T01:44:39;23.80;;;14.13;;
21862;SDS011;11096;51.338;12.524;2024-02-26T01:47:09;24.00;;;13.18;;
21862;SDS011;11096;51.338;12.524;2024-02-26T01:49:35;22.35;;;12.23;;
21862;SDS011;11096;51.338;12.524;2024-02-26T01:52:01;23.27;;;12.38;;
21862;SDS011;11096;51.338;12.524;2024-02-26T01:54:27;20.67;;;10.77;;
21862;SDS011;11096;51.338;12.524;2024-02-26T01:56:53;17.80;;;10.43;;
21862;SDS011;11096;51.338;12.524;2024-02-26T01:59:19;17.40;;;9.90;;
21862;SDS011;11096;51.338;12.524;2024-02-26T02:01:44;17.02;;;9.45;;
21862;SDS011;11096;51.338;12.524;2024-02-26T02:04:11;20.08;;;10.45;;
21862;SDS011;11096;51.338;12.524;2024-02-26T02:06:36;16.05;;;9.48;;
21862;SDS011;11096;51.338;12.524;2024-02-26T02:09:03;15.05;;;8.82;;
21862;SDS011;11096;51.338;12.524;2024-02-26T02:11:32;16.83;;;9.05;;
21862;SDS011;11096;51.338;12.524;2024-02-26T02:13:58;16.35;;;8.88;;
21862;SDS011;11096;51.338;12.524;2024-02-26T02:16:24;14.65;;;8.60;;
21862;SDS011;11096;51.338;12.524;2024-02-26T02:18:49;15.50;;;8.15;;
21862;SDS011;11096;51.338;12.524;2024-02-26T02:21:14;12.88;;;8.13;;
21862;SDS011;11096;51.338;12.524;2024-02-26T02:23:40;14.32;;;8.80;;
21862;SDS011;11096;51.338;12.524;2024-02-26T02:26:06;17.65;;;8.90;;
21862;SDS011;11096;51.338;12.524;2024-02-26T02:28:31;17.02;;;9.68;;
21862;SDS011;11096;51.338;12.524;2024-02-26T02:30:57;15.50;;;9.32;;
21862;SDS011;11096;51.338;12.524;2024-02-26T02:33:22;15.10;;;10.02;;
21862;SDS011;11096;51.338;12.524;2024-02-26T02:35:48;17.20;;;10.38;;
21862;SDS011;11096;51.338;12.524;2024-02-26T02:38:15;18.63;;;11.10;;
21862;SDS011;11096;51.338;12.524;2024-02-26T02:40:40;20.92;;;11.88;;
21862;SDS011;11096;51.338;12.524;2024-02-26T02:43:06;20.02;;;11.80;;
21862;SDS011;11096;51.338;12.524;2024-02-26T02:45:31;20.42;;;11.98;;
21862;SDS011;11096;51.338;12.524;2024-02-26T02:47:56;21.20;;;12.65;;
21862;SDS011;11096;51.338;12.524;2024-02-26T02:50:22;17.38;;;11.13;;
21862;SDS011;11096;51.338;12.524;2024-02-26T02:52:47;17.33;;;10.13;;
21862;SDS011;11096;51.338;12.524;2024-02-26T02:55:13;17.77;;;9.50;;
21862;SDS011;11096;51.338;12.524;2024-02-26T02:57:38;16.70;;;10.45;;
21862;SDS011;11096;51.338;12.524;2024-02-26T03:00:09;20.75;;;12.63;;
21862;SDS011;11096;51.338;12.524;2024-02-26T03:02:34;24.38;;;14.45;;
21862;SDS011;11096;51.338;12.524;2024-02-26T03:05:01;29.08;;;16.17;;
21862;SDS011;11096;51.338;12.524;2024-02-26T03:07:27;26.77;;;16.92;;
21862;SDS011;11096;51.338;12.524;2024-02-26T03:09:52;27.00;;;16.77;;
21862;SDS011;11096;51.338;12.524;2024-02-26T03:12:17;31.92;;;18.20;;
21862;SDS011;11096;51.338;12.524;2024-02-26T03:14:43;31.83;;;18.85;;
21862;SDS011;11096;51.338;12.524;2024-02-26T03:17:08;31.45;;;17.35;;
21862;SDS011;11096;51.338;12.524;2024-02-26T03:19:34;28.38;;;17.67;;
21862;SDS011;11096;51.338;12.524;2024-02-26T03:21:59;29.77;;;17.90;;
21862;SDS011;11096;51.338;12.524;2024-02-26T03:24:24;30.60;;;18.98;;
21862;SDS011;11096;51.338;12.524;2024-02-26T03:26:49;34.10;;;19.00;;
21862;SDS011;11096;51.338;12.524;2024-02-26T03:29:16;34.40;;;19.63;;
21862;SDS011;11096;51.338;12.524;2024-02-26T03:31:41;36.13;;;20.52;;
21862;SDS011;11096;51.338;12.524;2024-02-26T03:34:07;36.10;;;20.05;;
21862;SDS011;11096;51.338;12.524;2024-02-26T03:36:32;36.53;;;21.52;;
21862;SDS011;11096;51.338;12.524;2024-02-26T03:38:57;36.33;;;21.70;;
21862;SDS011;11096;51.338;12.524;2024-02-26T03:41:23;39.78;;;22.05;;
21862;SDS011;11096;51.338;12.524;2024-02-26T03:43:49;39.10;;;21.75;;
21862;SDS011;11096;51.338;12.524;2024-02-26T03:46:14;35.47;;;20.83;;
21862;SDS011;11096;51.338;12.524;2024-02-26T03:48:40;34.85;;;20.13;;
21862;SDS011;11096;51.338;12.524;2024-02-26T03:51:05;34.58;;;20.45;;
21862;SDS011;11096;51.338;12.524;2024-02-26T03:53:30;42.20;;;23.50;;
21862;SDS011;11096;51.338;12.524;2024-02-26T03:55:56;38.25;;;21.98;;
21862;SDS011;11096;51.338;12.524;2024-02-26T03:58:21;34.70;;;20.35;;
21862;SDS011;11096;51.338;12.524;2024-02-26T04:00:46;38.35;;;21.27;;
21862;SDS011;11096;51.338;12.524;2024-02-26T04:03:12;39.63;;;20.73;;
21862;SDS011;11096;51.338;12.524;2024-02-26T04:05:38;37.38;;;21.33;;
21862;SDS011;11096;51.338;12.524;2024-02-26T04:08:04;41.08;;;23.25;;
21862;SDS011;11096;51.338;12.524;2024-02-26T04:10:29;43.80;;;22.27;;
21862;SDS011;11096;51.338;12.524;2024-02-26T04:12:54;42.28;;;23.02;;
21862;SDS011;11096;51.338;12.524;2024-02-26T04:15:19;40.65;;;23.58;;
21862;SDS011;11096;51.338;12.524;2024-02-26T04:17:45;42.97;;;24.15;;
21862;SDS011;11096;51.338;12.524;2024-02-26T04:20:13;42.65;;;23.05;;
21862;SDS011;11096;51.338;12.524;2024-02-26T04:22:39;41.83;;;22.90;;
21862;SDS011;11096;51.338;12.524;2024-02-26T04:25:04;42.42;;;23.27;;
21862;SDS011;11096;51.338;12.524;2024-02-26T04:27:29;42.58;;;22.83;;
21862;SDS011;11096;51.338;12.524;2024-02-26T04:29:55;41.53;;;23.55;;
21862;SDS011;11096;51.338;12.524;2024-02-26T04:32:20;38.95;;;22.13;;
21862;SDS011;11096;51.338;12.524;2024-02-26T04:34:45;45.30;;;24.23;;
21862;SDS011;11096;51.338;12.524;2024-02-26T04:37:11;45.60;;;24.27;;
21862;SDS011;11096;51.338;12.524;2024-02-26T04:39:36;43.58;;;23.70;;
21862;SDS011;11096;51.338;12.524;2024-02-26T04:42:01;45.53;;;23.65;;
21862;SDS011;11096;51.338;12.524;2024-02-26T04:44:28;44.45;;;25.25;;
21862;SDS011;11096;51.338;12.524;2024-02-26T04:46:54;47.22;;;25.38;;
21862;SDS011;11096;51.338;12.524;2024-02-26T04:49:19;50.72;;;25.67;;
21862;SDS011;11096;51.338;12.524;2024-02-26T04:51:44;44.92;;;24.40;;
21862;SDS011;11096;51.338;12.524;2024-02-26T04:54:10;48.50;;;24.48;;
21862;SDS011;11096;51.338;12.524;2024-02-26T04:56:35;43.58;;;25.20;;
21862;SDS011;11096;51.338;12.524;2024-02-26T04:59:00;47.78;;;25.35;;
21862;SDS011;11096;51.338;12.524;2024-02-26T05:01:25;46.83;;;24.90;;
21862;SDS011;11096;51.338;12.524;2024-02-26T05:03:51;44.45;;;25.33;;
21862;SDS011;11096;51.338;12.524;2024-02-26T05:06:16;46.50;;;24.65;;
21862;SDS011;11096;51.338;12.524;2024-02-26T05:08:41;42.53;;;22.60;;
21862;SDS011;11096;51.338;12.524;2024-02-26T05:11:08;38.22;;;22.80;;
21862;SDS011;11096;51.338;12.524;2024-02-26T05:13:34;38.28;;;23.15;;
21862;SDS011;11096;51.338;12.524;2024-02-26T05:15:59;42.33;;;23.13;;
21862;SDS011;11096;51.338;12.524;2024-02-26T05:18:25;36.85;;;21.67;;
21862;SDS011;11096;51.338;12.524;2024-02-26T05:20:50;39.05;;;21.48;;
21862;SDS011;11096;51.338;12.524;2024-02-26T05:23:15;36.53;;;21.55;;
21862;SDS011;11096;51.338;12.524;2024-02-26T05:25:41;36.03;;;22.50;;
21862;SDS011;11096;51.338;12.524;2024-02-26T05:28:06;39.08;;;21.73;;
21862;SDS011;11096;51.338;12.524;2024-02-26T05:30:31;40.47;;;21.20;;
21862;SDS011;11096;51.338;12.524;2024-02-26T05:32:57;39.22;;;21.48;;
21862;SDS011;11096;51.338;12.524;2024-02-26T05:35:22;36.70;;;20.50;;
21862;SDS011;11096;51.338;12.524;2024-02-26T05:37:47;39.00;;;20.85;;
21862;SDS011;11096;51.338;12.524;2024-02-26T05:40:12;40.75;;;21.45;;
21862;SDS011;11096;51.338;12.524;2024-02-26T05:42:38;40.40;;;22.27;;
21862;SDS011;11096;51.338;12.524;2024-02-26T05:45:03;38.78;;;21.15;;
21862;SDS011;11096;51.338;12.524;2024-02-26T05:47:32;37.85;;;20.70;;
21862;SDS011;11096;51.338;12.524;2024-02-26T05:49:57;39.28;;;20.48;;
21862;SDS011;11096;51.338;12.524;2024-02-26T05:52:24;38.20;;;20.67;;
21862;SDS011;11096;51.338;12.524;2024-02-26T05:54:49;38.83;;;21.13;;
21862;SDS011;11096;51.338;12.524;2024-02-26T05:57:15;42.92;;;22.52;;
21862;SDS011;11096;51.338;12.524;2024-02-26T05:59:40;38.80;;;21.33;;
21862;SDS011;11096;51.338;12.524;2024-02-26T06:02:05;40.35;;;21.70;;
21862;SDS011;11096;51.338;12.524;2024-02-26T06:04:30;38.25;;;22.90;;
21862;SDS011;11096;51.338;12.524;2024-02-26T06:06:56;34.17;;;19.52;;
21862;SDS011;11096;51.338;12.524;2024-02-26T06:09:22;35.00;;;20.08;;
21862;SDS011;11096;51.338;12.524;2024-02-26T06:11:47;37.33;;;21.15;;
21862;SDS011;11096;51.338;12.524;2024-02-26T06:14:12;39.08;;;21.75;;
21862;SDS011;11096;51.338;12.524;2024-02-26T06:16:39;41.95;;;22.20;;
21862;SDS011;11096;51.338;12.524;2024-02-26T06:19:04;41.05;;;21.83;;
21862;SDS011;11096;51.338;12.524;2024-02-26T06:21:29;47.47;;;23.42;;
21862;SDS011;11096;51.338;12.524;2024-02-26T06:23:55;43.15;;;23.40;;
21862;SDS011;11096;51.338;12.524;2024-02-26T06:26:20;45.08;;;24.20;;
21862;SDS011;11096;51.338;12.524;2024-02-26T06:28:45;43.45;;;23.98;;
21862;SDS011;11096;51.338;12.524;2024-02-26T06:31:10;45.42;;;24.00;;
21862;SDS011;11096;51.338;12.524;2024-02-26T06:33:35;45.60;;;24.60;;
21862;SDS011;11096;51.338;12.524;2024-02-26T06:36:01;44.10;;;23.63;;
21862;SDS011;11096;51.338;12.524;2024-02-26T06:38:26;46.45;;;23.63;;
21862;SDS011;11096;51.338;12.524;2024-02-26T06:40:51;42.17;;;24.77;;
21862;SDS011;11096;51.338;12.524;2024-02-26T06:43:17;47.85;;;23.45;;
21862;SDS011;11096;51.338;12.524;2024-02-26T06:45:42;40.67;;;23.27;;
21862;SDS011;11096;51.338;12.524;2024-02-26T06:48:07;42.72;;;22.85;;
21862;SDS011;11096;51.338;12.524;2024-02-26T06:50:32;42.83;;;23.20;;
21862;SDS011;11096;51.338;12.524;2024-02-26T06:52:58;40.08;;;23.83;;
21862;SDS011;11096;51.338;12.524;2024-02-26T06:55:23;42.58;;;22.77;;
21862;SDS011;11096;51.338;12.524;2024-02-26T06:57:48;39.70;;;22.65;;
21862;SDS011;11096;51.338;12.524;2024-02-26T07:00:14;37.10;;;21.77;;
21862;SDS011;11096;51.338;12.524;2024-02-26T07:02:41;42.05;;;22.02;;
21862;SDS011;11096;51.338;12.524;2024-02-26T07:05:06;35.70;;;21.80;;
21862;SDS011;11096;51.338;12.524;2024-02-26T07:07:32;34.20;;;20.60;;
21862;SDS011;11096;51.338;12.524;2024-02-26T07:09:57;38.72;;;20.13;;
21862;SDS011;11096;51.338;12.524;2024-02-26T07:12:23;37.22;;;20.60;;
21862;SDS011;11096;51.338;12.524;2024-02-26T07:14:48;32.10;;;19.77;;
21862;SDS011;11096;51.338;12.524;2024-02-26T07:17:14;31.85;;;20.17;;
21862;SDS011;11096;51.338;12.524;2024-02-26T07:19:41;32.45;;;19.42;;
21862;SDS011;11096;51.338;12.524;2024-02-26T07:22:06;31.88;;;19.67;;
21862;SDS011;11096;51.338;12.524;2024-02-26T07:24:31;36.17;;;19.38;;
21862;SDS011;11096;51.338;12.524;2024-02-26T07:26:57;29.52;;;18.92;;
21862;SDS011;11096;51.338;12.524;2024-02-26T07:29:22;34.47;;;18.85;;
21862;SDS011;11096;51.338;12.524;2024-02-26T07:31:47;29.60;;;18.55;;
21862;SDS011;11096;51.338;12.524;2024-02-26T07:34:13;29.77;;;16.92;;
21862;SDS011;11096;51.338;12.524;2024-02-26T07:36:38;33.10;;;17.40;;
21862;SDS011;11096;51.338;12.524;2024-02-26T07:39:03;26.60;;;17.10;;
21862;SDS011;11096;51.338;12.524;2024-02-26T07:41:28;28.83;;;17.00;;
21862;SDS011;11096;51.338;12.524;2024-02-26T07:43:54;28.52;;;16.52;;
21862;SDS011;11096;51.338;12.524;2024-02-26T07:46:19;29.67;;;17.45;;
21862;SDS011;11096;51.338;12.524;2024-02-26T07:48:44;26.73;;;16.27;;
21862;SDS011;11096;51.338;12.524;2024-02-26T07:51:12;28.85;;;15.63;;
21862;SDS011;11096;51.338;12.524;2024-02-26T07:53:37;22.27;;;13.35;;
21862;SDS011;11096;51.338;12.524;2024-02-26T07:56:02;27.17;;;14.73;;
21862;SDS011;11096;51.338;12.524;2024-02-26T07:58:28;20.75;;;13.85;;
21862;SDS011;11096;51.338;12.524;2024-02-26T08:00:53;23.48;;;14.05;;
21862;SDS011;11096;51.338;12.524;2024-02-26T08:03:19;22.02;;;14.52;;
21862;SDS011;11096;51.338;12.524;2024-02-26T08:05:44;21.27;;;13.43;;
21862;SDS011;11096;51.338;12.524;2024-02-26T08:08:09;23.88;;;14.52;;
21862;SDS011;11096;51.338;12.524;2024-02-26T08:10:35;22.63;;;13.68;;
21862;SDS011;11096;51.338;12.524;2024-02-26T08:13:00;21.88;;;12.90;;
21862;SDS011;11096;51.338;12.524;2024-02-26T08:15:33;19.83;;;12.82;;
21862;SDS011;11096;51.338;12.524;2024-02-26T08:18:02;19.42;;;12.95;;
21862;SDS011;11096;51.338;12.524;2024-02-26T08:20:28;21.83;;;12.70;;
21862;SDS011;11096;51.338;12.524;2024-02-26T08:22:53;19.15;;;12.30;;
21862;SDS011;11096;51.338;12.524;2024-02-26T08:25:19;18.15;;;12.02;;
21862;SDS011;11096;51.338;12.524;2024-02-26T08:27:44;19.17;;;12.98;;
21862;SDS011;11096;51.338;12.524;2024-02-26T08:30:09;18.13;;;11.68;;
21862;SDS011;11096;51.338;12.524;2024-02-26T08:32:35;18.48;;;11.82;;
21862;SDS011;11096;51.338;12.524;2024-02-26T08:35:00;18.98;;;11.52;;
21862;SDS011;11096;51.338;12.524;2024-02-26T08:37:25;19.20;;;11.48;;
21862;SDS011;11096;51.338;12.524;2024-02-26T08:39:51;15.75;;;9.95;;
21862;SDS011;11096;51.338;12.524;2024-02-26T08:42:16;23.33;;;11.48;;
21862;SDS011;11096;51.338;12.524;2024-02-26T08:44:41;15.77;;;11.13;;
21862;SDS011;11096;51.338;12.524;2024-02-26T08:47:06;16.38;;;10.23;;
21862;SDS011;11096;51.338;12.524;2024-02-26T08:49:32;14.50;;;10.20;;
21862;SDS011;11096;51.338;12.524;2024-02-26T08:51:57;15.07;;;9.93;;
21862;SDS011;11096;51.338;12.524;2024-02-26T08:54:22;15.00;;;9.45;;
21862;SDS011;11096;51.338;12.524;2024-02-26T08:56:49;13.25;;;8.93;;
21862;SDS011;11096;51.338;12.524;2024-02-26T08:59:14;13.05;;;8.70;;
21862;SDS011;11096;51.338;12.524;2024-02-26T09:01:41;13.98;;;8.52;;
21862;SDS011;11096;51.338;12.524;2024-02-26T09:04:06;16.23;;;7.90;;
21862;SDS011;11096;51.338;12.524;2024-02-26T09:06:31;12.55;;;8.10;;
21862;SDS011;11096;51.338;12.524;2024-02-26T09:08:57;14.38;;;7.65;;
21862;SDS011;11096;51.338;12.524;2024-02-26T09:11:22;12.43;;;7.72;;
21862;SDS011;11096;51.338;12.524;2024-02-26T09:13:47;12.73;;;7.82;;
21862;SDS011;11096;51.338;12.524;2024-02-26T09:16:12;11.77;;;7.18;;
21862;SDS011;11096;51.338;12.524;2024-02-26T09:18:38;11.05;;;6.95;;
21862;SDS011;11096;51.338;12.524;2024-02-26T09:21:04;11.80;;;7.57;;
21862;SDS011;11096;51.338;12.524;2024-02-26T09:23:29;14.68;;;7.15;;
21862;SDS011;11096;51.338;12.524;2024-02-26T09:25:54;12.35;;;7.30;;
21862;SDS011;11096;51.338;12.524;2024-02-26T09:28:19;9.90;;;6.57;;
21862;SDS011;11096;51.338;12.524;2024-02-26T09:30:45;10.20;;;5.90;;
21862;SDS011;11096;51.338;12.524;2024-02-26T09:33:10;10.13;;;5.60;;
21862;SDS011;11096;51.338;12.524;2024-02-26T09:35:36;9.27;;;5.82;;
21862;SDS011;11096;51.338;12.524;2024-02-26T09:38:01;10.98;;;5.40;;
21862;SDS011;11096;51.338;12.524;2024-02-26T09:40:27;8.90;;;5.50;;
21862;SDS011;11096;51.338;12.524;2024-02-26T09:42:53;9.60;;;5.63;;
21862;SDS011;11096;51.338;12.524;2024-02-26T09:45:22;8.48;;;5.28;;
21862;SDS011;11096;51.338;12.524;2024-02-26T09:47:48;7.43;;;5.45;;
21862;SDS011;11096;51.338;12.524;2024-02-26T09:50:13;10.20;;;5.53;;
21862;SDS011;11096;51.338;12.524;2024-02-26T09:52:41;10.60;;;4.88;;
21862;SDS011;11096;51.338;12.524;2024-02-26T09:55:07;9.35;;;4.95;;
21862;SDS011;11096;51.338;12.524;2024-02-26T09:57:33;9.15;;;4.90;;
21862;SDS011;11096;51.338;12.524;2024-02-26T09:59:59;8.15;;;4.75;;
21862;SDS011;11096;51.338;12.524;2024-02-26T10:02:25;6.30;;;4.15;;
21862;SDS011;11096;51.338;12.524;2024-02-26T10:04:50;8.40;;;4.25;;
21862;SDS011;11096;51.338;12.524;2024-02-26T10:07:18;6.18;;;4.03;;
21862;SDS011;11096;51.338;12.524;2024-02-26T10:09:43;6.28;;;3.90;;
21862;SDS011;11096;51.338;12.524;2024-02-26T10:12:10;5.78;;;3.90;;
21862;SDS011;11096;51.338;12.524;2024-02-26T10:14:36;9.23;;;4.40;;
21862;SDS011;11096;51.338;12.524;2024-02-26T10:17:01;5.95;;;4.43;;
21862;SDS011;11096;51.338;12.524;2024-02-26T10:19:27;8.02;;;3.88;;
21862;SDS011;11096;51.338;12.524;2024-02-26T10:21:56;7.47;;;3.97;;
21862;SDS011;11096;51.338;12.524;2024-02-26T10:24:22;6.32;;;4.07;;
21862;SDS011;11096;51.338;12.524;2024-02-26T10:26:48;6.53;;;3.85;;
21862;SDS011;11096;51.338;12.524;2024-02-26T10:29:13;7.03;;;3.97;;
21862;SDS011;11096;51.338;12.524;2024-02-26T10:31:41;7.32;;;4.10;;
21862;SDS011;11096;51.338;12.524;2024-02-26T10:34:07;10.80;;;4.43;;
21862;SDS011;11096;51.338;12.524;2024-02-26T10:36:33;9.38;;;3.90;;
21862;SDS011;11096;51.338;12.524;2024-02-26T10:38:58;8.32;;;4.35;;
21862;SDS011;11096;51.338;12.524;2024-02-26T10:41:26;7.68;;;4.65;;
21862;SDS011;11096;51.338;12.524;2024-02-26T10:43:52;6.97;;;4.30;;
21862;SDS011;11096;51.338;12.524;2024-02-26T10:46:17;7.80;;;4.85;;
21862;SDS011;11096;51.338;12.524;2024-02-26T10:48:49;8.23;;;4.45;;
21862;SDS011;11096;51.338;12.524;2024-02-26T10:51:14;7.45;;;4.47;;
21862;SDS011;11096;51.338;12.524;2024-02-26T10:53:40;9.23;;;4.90;;
21862;SDS011;11096;51.338;12.524;2024-02-26T10:56:06;9.98;;;4.78;;
21862;SDS011;11096;51.338;12.524;2024-02-26T10:58:31;7.85;;;4.63;;
21862;SDS011;11096;51.338;12.524;2024-02-26T11:00:57;8.73;;;4.88;;
21862;SDS011;11096;51.338;12.524;2024-02-26T11:03:22;10.30;;;5.32;;
21862;SDS011;11096;51.338;12.524;2024-02-26T11:05:49;10.90;;;6.13;;
21862;SDS011;11096;51.338;12.524;2024-02-26T11:08:18;10.77;;;6.28;;
21862;SDS011;11096;51.338;12.524;2024-02-26T11:10:43;9.55;;;6.05;;
21862;SDS011;11096;51.338;12.524;2024-02-26T11:13:09;11.98;;;6.38;;
21862;SDS011;11096;51.338;12.524;2024-02-26T11:15:35;9.30;;;6.25;;
21862;SDS011;11096;51.338;12.524;2024-02-26T11:18:01;9.82;;;6.50;;
21862;SDS011;11096;51.338;12.524;2024-02-26T11:20:29;9.20;;;6.40;;
21862;SDS011;11096;51.338;12.524;2024-02-26T11:22:56;10.70;;;6.30;;
21862;SDS011;11096;51.338;12.524;2024-02-26T11:25:21;9.95;;;6.40;;
21862;SDS011;11096;51.338;12.524;2024-02-26T11:27:49;9.18;;;6.65;;
21862;SDS011;11096;51.338;12.524;2024-02-26T11:30:15;11.98;;;5.88;;
21862;SDS011;11096;51.338;12.524;2024-02-26T11:32:45;12.93;;;6.50;;
21862;SDS011;11096;51.338;12.524;2024-02-26T11:35:11;8.98;;;6.30;;
21862;SDS011;11096;51.338;12.524;2024-02-26T11:37:40;10.90;;;6.07;;
21862;SDS011;11096;51.338;12.524;2024-02-26T11:40:05;9.25;;;6.68;;
21862;SDS011;11096;51.338;12.524;2024-02-26T11:42:35;12.98;;;6.80;;
21862;SDS011;11096;51.338;12.524;2024-02-26T11:45:37;9.45;;;6.40;;
21862;SDS011;11096;51.338;12.524;2024-02-26T11:47:56;13.68;;;6.45;;
21862;SDS011;11096;51.338;12.524;2024-02-26T11:50:34;11.45;;;6.43;;
21862;SDS011;11096;51.338;12.524;2024-02-26T11:55:44;11.88;;;6.85;;
21862;SDS011;11096;51.338;12.524;2024-02-26T11:58:09;14.60;;;6.55;;
21862;SDS011;11096;51.338;12.524;2024-02-26T12:00:34;11.15;;;6.20;;
21862;SDS011;11096;51.338;12.524;2024-02-26T12:03:00;12.52;;;6.63;;
21862;SDS011;11096;51.338;12.524;2024-02-26T12:05:26;9.60;;;5.93;;
21862;SDS011;11096;51.338;12.524;2024-02-26T12:07:54;8.82;;;5.40;;
21862;SDS011;11096;51.338;12.524;2024-02-26T12:10:31;10.07;;;5.70;;
21862;SDS011;11096;51.338;12.524;2024-02-26T12:15:38;11.32;;;5.82;;
21862;SDS011;11096;51.338;12.524;2024-02-26T12:18:04;10.07;;;5.13;;
21862;SDS011;11096;51.338;12.524;2024-02-26T12:20:30;9.93;;;5.05;;
21862;SDS011;11096;51.338;12.524;2024-02-26T12:22:56;10.80;;;6.15;;
21862;SDS011;11096;51.338;12.524;2024-02-26T12:25:22;9.82;;;5.90;;
21862;SDS011;11096;51.338;12.524;2024-02-26T12:27:48;10.32;;;5.63;;
21862;SDS011;11096;51.338;12.524;2024-02-26T12:30:13;7.75;;;5.15;;
21862;SDS011;11096;51.338;12.524;2024-02-26T12:32:39;9.88;;;5.93;;
21862;SDS011;11096;51.338;12.524;2024-02-26T12:35:05;10.27;;;6.35;;
21862;SDS011;11096;51.338;12.524;2024-02-26T12:37:31;10.10;;;5.90;;
21862;SDS011;11096;51.338;12.524;2024-02-26T12:39:57;14.90;;;7.22;;
21862;SDS011;11096;51.338;12.524;2024-02-26T12:42:22;11.77;;;7.15;;
21862;SDS011;11096;51.338;12.524;2024-02-26T12:44:47;11.57;;;6.68;;
21862;SDS011;11096;51.338;12.524;2024-02-26T12:47:13;12.80;;;6.53;;
21862;SDS011;11096;51.338;12.524;2024-02-26T12:49:48;11.57;;;6.75;;
21862;SDS011;11096;51.338;12.524;2024-02-26T12:52:13;13.00;;;6.75;;
21862;SDS011;11096;51.338;12.524;2024-02-26T12:54:39;10.50;;;6.25;;
21862;SDS011;11096;51.338;12.524;2024-02-26T12:57:05;11.15;;;6.55;;
21862;SDS011;11096;51.338;12.524;2024-02-26T12:59:31;9.65;;;6.55;;
21862;SDS011;11096;51.338;12.524;2024-02-26T13:01:57;9.13;;;5.95;;
21862;SDS011;11096;51.338;12.524;2024-02-26T13:04:23;10.43;;;7.10;;
21862;SDS011;11096;51.338;12.524;2024-02-26T13:06:48;9.75;;;6.28;;
21862;SDS011;11096;51.338;12.524;2024-02-26T13:09:14;11.98;;;7.28;;
21862;SDS011;11096;51.338;12.524;2024-02-26T13:11:39;9.02;;;6.00;;
21862;SDS011;11096;51.338;12.524;2024-02-26T13:14:05;9.13;;;6.47;;
21862;SDS011;11096;51.338;12.524;2024-02-26T13:16:31;9.57;;;6.75;;
21862;SDS011;11096;51.338;12.524;2024-02-26T13:18:57;11.48;;;6.93;;
21862;SDS011;11096;51.338;12.524;2024-02-26T13:21:32;12.60;;;7.53;;
21862;SDS011;11096;51.338;12.524;2024-02-26T13:23:58;10.23;;;6.45;;
21862;SDS011;11096;51.338;12.524;2024-02-26T13:26:23;13.02;;;6.85;;
21862;SDS011;11096;51.338;12.524;2024-02-26T13:28:59;13.93;;;6.90;;
21862;SDS011;11096;51.338;12.524;2024-02-26T13:31:25;12.13;;;6.55;;
21862;SDS011;11096;51.338;12.524;2024-02-26T13:33:50;8.52;;;5.85;;
21862;SDS011;11096;51.338;12.524;2024-02-26T13:36:18;12.35;;;6.93;;
21862;SDS011;11096;51.338;12.524;2024-02-26T13:38:50;11.65;;;6.53;;
21862;SDS011;11096;51.338;12.524;2024-02-26T13:41:16;9.15;;;5.85;;
21862;SDS011;11096;51.338;12.524;2024-02-26T13:43:41;8.43;;;6.10;;
21862;SDS011;11096;51.338;12.524;2024-02-26T13:46:06;12.20;;;6.80;;
21862;SDS011;11096;51.338;12.524;2024-02-26T13:48:33;10.15;;;5.90;;
21862;SDS011;11096;51.338;12.524;2024-02-26T13:50:58;9.63;;;6.27;;
21862;SDS011;11096;51.338;12.524;2024-02-26T13:53:23;9.50;;;6.70;;
21862;SDS011;11096;51.338;12.524;2024-02-26T13:55:49;8.32;;;5.68;;
21862;SDS011;11096;51.338;12.524;2024-02-26T13:58:14;9.60;;;5.80;;
21862;SDS011;11096;51.338;12.524;2024-02-26T14:00:39;10.73;;;5.97;;
21862;SDS011;11096;51.338;12.524;2024-02-26T14:03:06;8.15;;;5.75;;
21862;SDS011;11096;51.338;12.524;2024-02-26T14:05:31;10.77;;;5.93;;
21862;SDS011;11096;51.338;12.524;2024-02-26T14:07:56;10.70;;;5.65;;
21862;SDS011;11096;51.338;12.524;2024-02-26T14:10:22;9.60;;;5.72;;
21862;SDS011;11096;51.338;12.524;2024-02-26T14:12:47;9.35;;;5.43;;